Terminal Aerodrome Forecast
Issued by NWS Tiyan, Guam

Home | Current Version | Previous Version | Text Only | Print | Product List | Glossary On
Versions: 1 2 3 4 5 6 7 8 9 10 11 12 13 14 15 16 17 18 19 20 21 22 23 24 25 26 27 28 29 30 31 32 33 34 35 36 37 38
000
FTPQ31 PGUM 272320
TAFGUM
TAF
PGUM 272320Z 2800/2906 31008KT P6SM VCSH FEW014 SCT025 BKN120
     FM280400 28012G20KT P6SM VCSH SCT012 BKN025 OVC100
      TEMPO 2805/2809 3SM +SHRA OVC012
     FM281400 25015G25KT 6SM SHRA SCT009 OVC025
     FM290100 23014G20KT P6SM VCSH SCT015 BKN030=

USA.gov is the U.S. government's official web portal to all federal, state and local government web resources and services.